Carrabassett Valley, Maine
Current Conditions -  °F | °C
As of 3:15 AM on Monday 24 Nov 2014 (Local Time) from KWVL Reporting Station
Clear Clear  
Wind Chill: 37°   Ceiling: Unl
Heat Index: 37°   Visibility: 1mi
Dew Point: 34°   Wind: 3mph
Humidity: 87%   Direction: 30°NNE
Pressure: 30.03"   Gusts: NA
Location:  45.0706°N, 70.2458°W
Report Text: KWVL 240815Z 03003KT 1SM CLR 03/01 A3003 RMK AO1
Loading
Personal Weather Stations






























Interactive Weather Map New forecast layout! Learn more

10-Day Weather Forecast

Advertisements
Track Severe Weather on mobile